Accueil
METAR-TAF:

METAR-TAF

Aéroports :

Aéroport de Castres-Mazamet

Castres, France

latitude: 43-33-25N, longitude: 2-17-21E, altitude: 239 m

Observation

Le bulletin a été fait il y a 18 minutes, à 03:30 UTC
Vent calme
Température 18°C
Humidité 88%
Pression 1015 hPa
Visibilité 10 km ou plus
Ciel couvert à une hauteur de 4100 ft

METAR: LFCK 060330Z AUTO 00000KT 9999 OVC041 18/16 Q1015

Heure: 05:48 (03:48 UTC)

Prévision

Le bulletin a été fait il y a 10 heures et 48 minutes, à 17:00 UTC
Prévision valable du 05 à 18 UTC au 06 à 03 UTC
Vent 4 kt de ouest/nord-ouest
Visibilité 10 km ou plus
Nuages épars à une hauteur de 4000 ft

TAF: LFCK 051700Z 0518/0603 30004KT 9999 SCT040

Observations et prévisions météorologiques de plus de 4000 aéroports (messages METAR et TAF).

Les stations disponibles sont représentées par des disques jaunes et rouges sur la carte.

Passer la souris dessus pour voir le nom de la station.

Cliquer dessus pour voir les observations et prévisions météorologiques.

Pour changer de carte: cliquez sur les boutons verts avec une croix noire pour zoomer, sur le bouton vert avec un tiret pour effectuer un zoom arrière, ou sur les flèches vertes pour les cartes adjacentes.


METAR-TAF: